createdAt,value
2023-03-03T00:00:49.796Z,4.22
2023-03-03T00:01:49.753Z,4.36
2023-03-03T00:02:49.732Z,4.22
2023-03-03T00:03:49.833Z,4.24
2023-03-03T00:04:49.749Z,4.23
2023-03-03T00:05:49.756Z,4.17
2023-03-03T00:06:49.704Z,4.16
2023-03-03T00:07:49.677Z,4.25
2023-03-03T00:08:49.688Z,4.16
2023-03-03T00:09:49.647Z,4.27
2023-03-03T00:10:49.666Z,4.24
2023-03-03T00:11:49.638Z,4.24
2023-03-03T00:12:49.614Z,4.16
2023-03-03T00:13:49.621Z,4.24
2023-03-03T00:14:49.590Z,4.21
2023-03-03T00:15:49.615Z,4.15
2023-03-03T00:16:49.544Z,4.15
2023-03-03T00:17:49.556Z,4.15
2023-03-03T00:18:49.559Z,4.19
2023-03-03T00:19:49.548Z,4.14
2023-03-03T00:20:49.530Z,4.12
2023-03-03T00:21:49.502Z,4.13
2023-03-03T00:22:49.474Z,4.11
2023-03-03T00:23:49.482Z,4.14
2023-03-03T00:24:49.465Z,4.16
2023-03-03T00:25:49.484Z,4.06
2023-03-03T00:26:49.448Z,4.12
2023-03-03T00:27:49.446Z,4.15
2023-03-03T00:28:49.418Z,4.02
2023-03-03T00:29:49.432Z,4.03
2023-03-03T00:30:49.443Z,4.00
2023-03-03T00:31:49.384Z,4.06
2023-03-03T00:32:49.389Z,4.04
2023-03-03T00:33:49.364Z,4.12
2023-03-03T00:34:49.345Z,4.08
2023-03-03T00:35:49.368Z,4.01
2023-03-03T00:36:49.352Z,4.01
2023-03-03T00:37:49.307Z,3.98
2023-03-03T00:38:49.294Z,4.10
2023-03-03T00:39:49.261Z,4.02
2023-03-03T00:40:49.268Z,4.17
2023-03-03T00:41:49.264Z,4.02
2023-03-03T00:42:49.234Z,3.95
2023-03-03T00:43:49.194Z,4.06
2023-03-03T00:44:49.186Z,4.00
2023-03-03T00:45:49.216Z,3.95
2023-03-03T00:46:49.170Z,3.95
2023-03-03T00:47:49.127Z,3.94
2023-03-03T00:48:49.099Z,4.01
2023-03-03T00:49:49.108Z,3.99
2023-03-03T00:50:49.118Z,4.01
2023-03-03T00:51:49.084Z,3.95
2023-03-03T00:52:49.077Z,3.97
2023-03-03T00:53:49.034Z,4.00
2023-03-03T00:54:49.026Z,3.96
2023-03-03T00:55:49.025Z,3.93
2023-03-03T00:56:49.022Z,4.02
2023-03-03T00:57:48.985Z,3.94
2023-03-03T00:58:48.959Z,3.90
2023-03-03T00:59:48.936Z,3.99
2023-03-03T01:00:48.971Z,4.01
2023-03-03T01:01:48.951Z,3.87
2023-03-03T01:02:48.946Z,3.88
2023-03-03T01:03:48.875Z,3.91
2023-03-03T01:04:48.894Z,3.88
2023-03-03T01:05:48.854Z,3.88
2023-03-03T01:06:48.860Z,3.83
2023-03-03T01:07:48.834Z,3.83
2023-03-03T01:08:48.828Z,3.79
2023-03-03T01:09:48.813Z,3.93
2023-03-03T01:10:48.789Z,3.85
2023-03-03T01:11:48.824Z,3.89
2023-03-03T01:12:48.759Z,3.88
2023-03-03T01:13:48.744Z,3.84
2023-03-03T01:14:48.741Z,3.84
2023-03-03T01:15:48.757Z,3.84
2023-03-03T01:16:48.708Z,3.90
2023-03-03T01:17:48.688Z,3.83
2023-03-03T01:18:48.682Z,3.89
2023-03-03T01:19:48.637Z,3.86
2023-03-03T01:20:48.657Z,3.79
2023-03-03T01:21:48.626Z,3.79
2023-03-03T01:22:48.607Z,3.82
2023-03-03T01:23:48.613Z,3.78
2023-03-03T01:24:48.583Z,3.79
2023-03-03T01:25:48.545Z,3.78
2023-03-03T01:26:48.546Z,3.87
2023-03-03T01:27:48.595Z,3.75
2023-03-03T01:28:48.495Z,3.78
2023-03-03T01:29:48.498Z,3.76
2023-03-03T01:30:50.016Z,3.68
2023-03-03T01:31:48.475Z,3.75
2023-03-03T01:32:48.473Z,3.77
2023-03-03T01:33:48.432Z,3.74
2023-03-03T01:34:48.400Z,3.69
2023-03-03T01:35:48.461Z,3.70
2023-03-03T01:36:48.408Z,3.69
2023-03-03T01:37:48.342Z,3.78
2023-03-03T01:38:48.332Z,3.69
2023-03-03T01:39:48.321Z,3.69
2023-03-03T01:40:48.283Z,3.71
2023-03-03T01:41:48.288Z,3.63
2023-03-03T01:42:48.270Z,3.72
2023-03-03T01:43:48.230Z,3.72
2023-03-03T01:44:48.212Z,3.68
2023-03-03T01:45:48.221Z,3.71
2023-03-03T01:46:48.348Z,3.75
2023-03-03T01:47:48.178Z,3.64
2023-03-03T01:48:48.179Z,3.66
2023-03-03T01:49:48.181Z,3.63
2023-03-03T01:50:48.159Z,3.66
2023-03-03T01:51:48.192Z,3.68
2023-03-03T01:52:48.146Z,3.69
2023-03-03T01:53:48.123Z,3.59
2023-03-03T01:54:48.104Z,3.67
2023-03-03T01:55:48.125Z,3.64
2023-03-03T01:56:48.124Z,3.63
2023-03-03T01:57:48.046Z,3.65
2023-03-03T01:58:48.066Z,3.58
2023-03-03T01:59:48.045Z,3.60
2023-03-03T02:00:48.037Z,3.64
2023-03-03T02:01:48.139Z,3.62
2023-03-03T02:02:48.032Z,3.67
2023-03-03T02:03:47.978Z,3.63
2023-03-03T02:04:47.999Z,3.57
2023-03-03T02:05:47.964Z,3.60
2023-03-03T02:06:47.977Z,3.58
2023-03-03T02:07:47.959Z,3.60
2023-03-03T02:08:47.932Z,3.59
2023-03-03T02:09:47.935Z,3.61
2023-03-03T02:10:47.925Z,3.63
2023-03-03T02:11:47.911Z,3.52
2023-03-03T02:12:47.926Z,3.56
2023-03-03T02:13:47.884Z,3.56
2023-03-03T02:14:47.891Z,3.47
2023-03-03T02:15:47.913Z,3.60
2023-03-03T02:16:47.831Z,3.58
2023-03-03T02:17:47.904Z,3.61
2023-03-03T02:18:47.829Z,3.54
2023-03-03T02:19:47.796Z,3.51
2023-03-03T02:20:47.799Z,3.49
2023-03-03T02:21:47.776Z,3.52
2023-03-03T02:22:47.779Z,3.49
2023-03-03T02:23:47.775Z,3.58
2023-03-03T02:24:47.738Z,3.53
2023-03-03T02:25:47.747Z,3.46
2023-03-03T02:26:47.711Z,3.45
2023-03-03T02:27:47.719Z,3.48
2023-03-03T02:28:47.670Z,3.51
2023-03-03T02:29:47.658Z,3.49
2023-03-03T02:30:47.644Z,3.48
2023-03-03T02:31:47.659Z,3.51
2023-03-03T02:32:47.634Z,3.46
2023-03-03T02:33:47.633Z,3.50
2023-03-03T02:34:47.579Z,3.49
2023-03-03T02:35:47.616Z,3.50
2023-03-03T02:36:47.564Z,3.40
2023-03-03T02:37:47.805Z,3.45
2023-03-03T02:38:47.560Z,3.53
2023-03-03T02:39:47.539Z,3.48
2023-03-03T02:40:47.538Z,3.44
2023-03-03T02:41:47.541Z,3.50
2023-03-03T02:42:47.520Z,3.39
2023-03-03T02:43:47.479Z,3.42
2023-03-03T02:44:47.495Z,3.46
2023-03-03T02:45:47.475Z,3.41
2023-03-03T02:46:47.455Z,3.43
2023-03-03T02:47:47.479Z,3.41
2023-03-03T02:48:47.419Z,3.36
2023-03-03T02:49:47.418Z,3.40
2023-03-03T02:50:47.397Z,3.32
2023-03-03T02:51:47.389Z,3.36
2023-03-03T02:52:47.368Z,3.37
2023-03-03T02:53:47.375Z,3.32
2023-03-03T02:54:47.349Z,3.42
2023-03-03T02:55:47.349Z,3.32
2023-03-03T02:56:47.329Z,3.42
2023-03-03T02:57:47.315Z,3.30
2023-03-03T02:58:47.296Z,3.37
2023-03-03T02:59:47.300Z,3.31
2023-03-03T03:00:47.294Z,3.35
2023-03-03T03:01:47.274Z,3.33
2023-03-03T03:02:47.267Z,3.35
2023-03-03T03:03:47.261Z,3.36
2023-03-03T03:04:47.229Z,3.38
2023-03-03T03:05:47.209Z,3.33
2023-03-03T03:06:47.216Z,3.35
2023-03-03T03:07:47.186Z,3.31
2023-03-03T03:08:47.189Z,3.33
2023-03-03T03:09:47.156Z,3.29
2023-03-03T03:10:47.162Z,3.29
2023-03-03T03:11:47.173Z,3.28
2023-03-03T03:12:47.137Z,3.27
2023-03-03T03:13:47.131Z,3.24
2023-03-03T03:14:47.144Z,3.29
2023-03-03T03:15:47.118Z,3.24
2023-03-03T03:16:47.175Z,3.29
2023-03-03T03:17:47.083Z,3.25
2023-03-03T03:18:47.082Z,3.36
2023-03-03T03:19:47.133Z,3.20
2023-03-03T03:20:48.511Z,3.26
2023-03-03T03:21:47.033Z,3.25
2023-03-03T03:22:47.028Z,3.25
2023-03-03T03:23:47.150Z,3.24
2023-03-03T03:24:47.063Z,3.23
2023-03-03T03:25:47.011Z,3.18
2023-03-03T03:26:46.984Z,3.22
2023-03-03T03:27:47.009Z,3.23
2023-03-03T03:28:47.027Z,3.28
2023-03-03T03:29:46.975Z,3.22
2023-03-03T03:30:46.993Z,3.20
2023-03-03T03:31:46.945Z,3.25
2023-03-03T03:32:46.961Z,3.28
2023-03-03T03:33:46.962Z,3.24
2023-03-03T03:34:46.938Z,3.24
2023-03-03T03:35:46.925Z,3.22
2023-03-03T03:36:46.905Z,3.26
2023-03-03T03:37:46.905Z,3.11
2023-03-03T03:38:46.915Z,3.21
2023-03-03T03:39:47.628Z,3.20
2023-03-03T03:40:46.870Z,3.16
2023-03-03T03:41:46.893Z,3.16
2023-03-03T03:42:46.874Z,3.13
2023-03-03T03:43:46.879Z,3.14
2023-03-03T03:44:46.849Z,3.15
2023-03-03T03:45:46.822Z,3.25
2023-03-03T03:46:46.832Z,3.19
2023-03-03T03:47:46.813Z,3.21
2023-03-03T03:48:46.820Z,3.13
2023-03-03T03:49:46.837Z,3.15
2023-03-03T03:50:46.803Z,3.18
2023-03-03T03:51:46.792Z,3.08
2023-03-03T03:52:46.799Z,3.14
2023-03-03T03:53:46.759Z,3.10
2023-03-03T03:54:46.805Z,3.12
2023-03-03T03:55:46.767Z,3.05
2023-03-03T03:56:46.748Z,3.12
2023-03-03T03:57:46.739Z,3.14
2023-03-03T03:58:46.741Z,3.16
2023-03-03T03:59:46.761Z,3.09
2023-03-03T04:00:46.732Z,3.16
2023-03-03T04:01:46.721Z,3.08
2023-03-03T04:02:46.846Z,3.11
2023-03-03T04:03:46.718Z,3.04
2023-03-03T04:04:46.750Z,3.12
2023-03-03T04:05:46.694Z,3.13
2023-03-03T04:06:46.734Z,3.06
2023-03-03T04:07:46.702Z,3.08
2023-03-03T04:08:46.675Z,3.09
2023-03-03T04:09:46.675Z,3.06
2023-03-03T04:10:46.699Z,3.04
2023-03-03T04:11:46.638Z,3.15
2023-03-03T04:12:46.616Z,3.05
2023-03-03T04:13:46.620Z,3.02
2023-03-03T04:14:46.652Z,3.07
2023-03-03T04:15:46.663Z,3.05
2023-03-03T04:16:46.602Z,2.99
2023-03-03T04:17:46.577Z,3.02
2023-03-03T04:18:46.856Z,3.04
2023-03-03T04:19:46.563Z,3.05
2023-03-03T04:20:46.549Z,3.00
2023-03-03T04:21:46.528Z,3.01
2023-03-03T07:20:44.549Z,3.47
2023-03-03T07:21:44.602Z,3.43
2023-03-03T07:22:44.629Z,3.37
2023-03-03T07:23:44.558Z,3.50
2023-03-03T07:24:44.606Z,3.45
2023-03-03T07:25:44.497Z,3.41
2023-03-03T07:26:44.454Z,3.42
2023-03-03T07:27:44.556Z,3.42
2023-03-03T07:28:44.468Z,3.38
2023-03-03T07:29:44.482Z,3.39
2023-03-03T07:30:44.424Z,3.36
2023-03-03T07:31:45.699Z,3.33
2023-03-03T07:32:44.408Z,3.20
2023-03-03T07:33:44.332Z,3.21
2023-03-03T07:34:44.326Z,3.19
2023-03-03T07:35:44.334Z,3.22
2023-03-03T07:36:44.319Z,3.23
2023-03-03T07:37:44.352Z,3.21
2023-03-03T07:38:44.357Z,3.14
2023-03-03T07:39:44.255Z,3.09
2023-03-03T07:40:44.315Z,3.14
2023-03-03T07:41:44.208Z,3.11
2023-03-03T07:42:44.234Z,2.96
2023-03-03T07:43:44.224Z,2.96
2023-03-03T07:44:44.145Z,2.92
2023-03-03T07:45:44.158Z,2.83
2023-03-03T07:46:49.096Z,2.87
2023-03-03T07:47:49.733Z,2.96
2023-03-03T07:48:49.079Z,2.97
2023-03-03T07:49:49.037Z,2.97
2023-03-03T07:50:49.627Z,2.97
2023-03-03T07:51:44.029Z,2.97
2023-03-03T07:52:44.341Z,3.00
2023-03-03T07:53:44.014Z,3.03
2023-03-03T07:54:44.005Z,3.01
2023-03-03T07:55:43.955Z,3.00
2023-03-03T07:56:43.958Z,2.98
2023-03-03T07:57:46.213Z,2.93
2023-03-03T07:58:44.039Z,2.90
2023-03-03T07:59:43.911Z,2.91
2023-03-03T08:00:43.930Z,2.89
2023-03-03T08:01:43.911Z,2.82
2023-03-03T08:02:43.954Z,2.82
2023-03-03T08:03:43.862Z,2.90
2023-03-03T08:05:47.394Z,2.94
2023-03-03T08:06:46.124Z,2.94
2023-03-03T08:07:46.126Z,2.94
2023-03-03T08:08:46.034Z,2.94
2023-03-03T08:09:46.269Z,2.94
2023-03-03T08:10:43.883Z,2.94
2023-03-03T08:11:43.832Z,2.97
2023-03-03T08:12:43.842Z,3.00
2023-03-03T08:13:43.674Z,2.99
2023-03-03T08:14:43.621Z,2.83
2023-03-03T08:15:43.861Z,2.77
2023-03-03T08:16:43.599Z,2.65
2023-03-03T08:18:43.782Z,2.82
2023-03-03T08:19:43.664Z,2.67
2023-03-03T08:20:44.498Z,2.54
2023-03-03T08:21:43.612Z,2.44
2023-03-03T08:22:43.583Z,2.37
2023-03-03T08:23:45.753Z,2.33
2023-03-03T08:24:43.667Z,2.21
2023-03-03T08:25:43.601Z,2.16
2023-03-03T08:26:43.677Z,2.11
2023-03-03T08:27:43.505Z,2.09
2023-03-03T08:28:43.511Z,2.08
2023-03-03T08:29:43.584Z,2.09
2023-03-03T08:30:43.630Z,2.07
2023-03-03T08:31:43.478Z,2.04
2023-03-03T08:32:43.783Z,2.00
2023-03-03T08:33:43.453Z,1.96
2023-03-03T08:34:43.381Z,1.93
2023-03-03T08:35:43.442Z,1.84
2023-03-03T08:36:43.390Z,1.71
2023-03-03T08:37:43.319Z,1.64
2023-03-03T08:39:43.282Z,1.58
2023-03-03T08:40:43.254Z,1.58
2023-03-03T08:41:43.270Z,1.49
2023-03-03T08:42:43.277Z,1.67
2023-03-03T08:43:43.756Z,1.59
2023-03-03T08:44:43.219Z,1.69
2023-03-03T08:45:43.824Z,1.76
2023-03-03T08:46:43.252Z,1.81
2023-03-03T08:47:44.198Z,1.76
2023-03-03T08:48:43.150Z,1.71
2023-03-03T08:49:43.122Z,1.74
2023-03-03T08:50:43.174Z,1.81
2023-03-03T08:51:43.199Z,1.86
2023-03-03T08:53:42.992Z,1.91
2023-03-03T08:54:42.965Z,1.75
2023-03-03T08:55:42.970Z,1.65
2023-03-03T08:56:42.954Z,1.62
2023-03-03T08:57:42.886Z,1.59
2023-03-03T08:58:49.897Z,1.41
2023-03-03T08:59:43.854Z,1.41
2023-03-03T09:00:42.825Z,1.30
2023-03-03T09:01:42.855Z,1.23
2023-03-03T09:02:42.768Z,1.21
2023-03-03T09:03:42.751Z,1.21
2023-03-03T09:04:42.762Z,1.11
2023-03-03T09:05:42.889Z,1.23
2023-03-03T09:06:42.681Z,1.22
2023-03-03T09:07:42.670Z,1.20
2023-03-03T09:08:42.656Z,1.13
2023-03-03T09:09:42.622Z,1.11
2023-03-03T09:10:42.590Z,1.08
2023-03-03T09:11:42.572Z,1.04
2023-03-03T09:12:42.586Z,1.00
2023-03-03T09:13:42.527Z,0.96
2023-03-03T09:14:42.531Z,0.97
2023-03-03T09:15:42.618Z,0.96
2023-03-03T09:16:42.463Z,0.91
2023-03-03T09:17:42.443Z,0.88
2023-03-03T09:18:42.419Z,0.90
2023-03-03T09:19:42.428Z,0.85
2023-03-03T09:20:42.384Z,0.87
2023-03-03T09:21:42.445Z,0.88
2023-03-03T09:22:42.371Z,0.87
2023-03-03T09:23:42.413Z,0.88
2023-03-03T09:27:42.363Z,0.84
2023-03-03T10:34:28.825Z,0.50
2023-03-03T10:35:28.819Z,0.50
2023-03-03T10:36:30.475Z,0.50
2023-03-03T10:37:28.769Z,0.50
2023-03-03T10:38:28.743Z,0.52
2023-03-03T10:39:28.728Z,0.50
2023-03-03T10:40:28.731Z,0.50
2023-03-03T10:41:28.699Z,0.51
2023-03-03T10:42:28.684Z,0.53
2023-03-03T10:43:32.263Z,0.54
2023-03-03T10:44:28.651Z,0.50
2023-03-03T10:45:28.654Z,0.51
2023-03-03T10:46:36.528Z,0.54
2023-03-03T10:47:28.577Z,0.50
2023-03-03T10:48:28.567Z,0.51
2023-03-03T10:49:28.649Z,0.52
2023-03-03T10:50:28.511Z,0.52
2023-03-03T10:51:28.501Z,0.48
2023-03-03T10:52:28.456Z,0.50
2023-03-03T10:53:28.461Z,0.56
2023-03-03T10:54:28.436Z,0.57
2023-03-03T10:55:28.395Z,0.66
2023-03-03T10:56:28.378Z,0.69
2023-03-03T10:57:28.373Z,0.71
2023-03-03T10:58:28.356Z,0.65
2023-03-03T10:59:28.327Z,0.78
2023-03-03T11:00:28.297Z,0.76
2023-03-03T11:01:28.439Z,0.77
2023-03-03T11:02:28.234Z,0.71
2023-03-03T11:03:29.111Z,0.73
2023-03-03T11:04:28.244Z,0.65
2023-03-03T11:05:28.215Z,0.73
2023-03-03T11:06:28.156Z,0.74
2023-03-03T11:07:30.198Z,0.45
2023-03-03T11:08:28.129Z,0.54
2023-03-03T11:09:28.127Z,0.64
2023-03-03T11:10:28.060Z,0.71
2023-03-03T11:11:28.092Z,0.74
2023-03-03T11:12:28.041Z,0.72
2023-03-03T11:13:28.000Z,0.68
2023-03-03T11:14:28.108Z,0.75
2023-03-03T11:15:27.969Z,0.74
2023-03-03T11:16:27.951Z,0.46
2023-03-03T11:17:27.922Z,0.61
2023-03-03T11:18:27.861Z,0.73
2023-03-03T11:19:27.835Z,0.73
2023-03-03T11:20:27.815Z,0.62
2023-03-03T11:21:27.815Z,0.69
2023-03-03T11:22:27.763Z,0.75
2023-03-03T11:23:27.791Z,0.78
2023-03-03T11:24:27.774Z,0.86
2023-03-03T11:25:27.698Z,0.89
2023-03-03T11:26:27.705Z,0.65
2023-03-03T11:27:27.662Z,0.67
2023-03-03T11:28:27.680Z,0.52
2023-03-03T11:29:27.741Z,0.50
2023-03-03T11:30:27.566Z,0.50
2023-03-03T11:31:29.355Z,0.50
2023-03-03T11:32:27.562Z,0.47
2023-03-03T11:33:27.627Z,0.42
2023-03-03T11:34:27.760Z,0.48
2023-03-03T11:35:27.741Z,0.49
2023-03-03T11:36:27.581Z,0.53
2023-03-03T11:37:27.445Z,0.56
2023-03-03T11:38:27.384Z,0.50
2023-03-03T11:39:27.537Z,0.54
2023-03-03T11:40:27.416Z,0.53
2023-03-03T11:41:27.382Z,0.50
2023-03-03T11:42:28.088Z,0.51
2023-03-03T11:43:36.617Z,0.52
2023-03-03T11:44:28.396Z,0.51
2023-03-03T11:45:27.226Z,0.50
2023-03-03T11:46:27.331Z,0.51
2023-03-03T11:47:28.582Z,0.46
2023-03-03T11:48:27.159Z,0.46
2023-03-03T11:49:27.168Z,0.53
2023-03-03T11:50:28.106Z,0.58
2023-03-03T11:51:27.100Z,0.58
2023-03-03T11:52:27.129Z,0.56
2023-03-03T11:53:27.039Z,0.69
2023-03-03T11:54:27.001Z,0.61
2023-03-03T11:55:27.008Z,0.53
2023-03-03T11:56:26.987Z,0.57
2023-03-03T11:57:26.960Z,0.51
2023-03-03T11:58:26.940Z,0.68
2023-03-03T11:59:26.934Z,0.92
2023-03-03T12:00:27.043Z,0.84
2023-03-03T12:01:26.915Z,1.03
2023-03-03T12:02:27.110Z,0.92
2023-03-03T12:03:26.812Z,0.76
2023-03-03T12:04:26.822Z,0.73
2023-03-03T12:05:26.855Z,0.74
2023-03-03T12:06:26.798Z,0.77
2023-03-03T12:07:26.746Z,0.80
2023-03-03T12:08:26.713Z,0.86
2023-03-03T12:09:26.702Z,0.74
2023-03-03T12:10:26.768Z,0.75
2023-03-03T12:11:26.686Z,0.79
2023-03-03T12:12:26.680Z,0.98
2023-03-03T12:13:26.732Z,0.90
2023-03-03T12:14:26.618Z,0.71
2023-03-03T12:15:26.793Z,0.63
2023-03-03T12:16:26.604Z,0.55
2023-03-03T12:17:26.601Z,0.46
2023-03-03T12:18:26.571Z,0.52
2023-03-03T12:19:26.574Z,0.52
2023-03-03T12:20:26.552Z,0.54
2023-03-03T12:21:26.567Z,0.58
2023-03-03T12:22:26.597Z,0.63
2023-03-03T12:23:26.516Z,0.65
2023-03-03T12:24:26.482Z,0.82
2023-03-03T12:25:27.120Z,1.00
2023-03-03T12:26:26.474Z,0.77
2023-03-03T12:27:27.155Z,0.89
2023-03-03T12:28:27.120Z,0.94
2023-03-03T12:29:26.432Z,0.85
2023-03-03T12:30:26.390Z,0.63
2023-03-03T12:31:26.451Z,0.72
2023-03-03T12:32:26.421Z,0.50
2023-03-03T12:33:26.408Z,0.53
2023-03-03T12:34:26.367Z,0.57
2023-03-03T12:35:26.395Z,0.43
2023-03-03T12:36:26.314Z,0.40
2023-03-03T12:37:26.329Z,0.51
2023-03-03T12:38:26.290Z,0.62
2023-03-03T12:39:34.831Z,0.65
2023-03-03T12:40:27.303Z,0.52
2023-03-03T12:41:26.275Z,0.37
2023-03-03T12:42:26.259Z,0.43
2023-03-03T12:43:26.264Z,0.40
2023-03-03T12:44:26.235Z,0.37
2023-03-03T12:45:26.242Z,0.51
2023-03-03T12:46:29.495Z,0.50
2023-03-03T12:47:26.233Z,0.59
2023-03-03T12:48:26.239Z,0.55
2023-03-03T12:49:26.228Z,0.56
2023-03-03T12:50:26.216Z,0.70
2023-03-03T12:51:26.191Z,0.97
2023-03-03T12:52:26.182Z,1.11
2023-03-03T12:53:26.218Z,1.29
2023-03-03T12:54:26.162Z,1.62
2023-03-03T12:55:26.150Z,1.91
2023-03-03T12:56:26.167Z,2.30
2023-03-03T12:57:26.151Z,2.58
2023-03-03T12:58:26.160Z,2.86
2023-03-03T12:59:26.110Z,2.97
2023-03-03T13:00:26.112Z,3.36
2023-03-03T13:01:26.150Z,3.40
2023-03-03T13:02:26.114Z,3.68
2023-03-03T13:03:31.771Z,4.26
2023-03-03T13:04:27.129Z,3.46
2023-03-03T13:05:26.046Z,3.81
2023-03-03T13:06:26.040Z,4.57
2023-03-03T13:07:26.039Z,5.99
2023-03-03T13:08:26.031Z,9.02
2023-03-03T13:09:26.164Z,9.32
2023-03-03T13:10:26.001Z,9.11
2023-03-03T13:11:25.994Z,8.95
2023-03-03T13:12:25.978Z,9.22
2023-03-03T13:13:25.972Z,9.21
2023-03-03T13:14:25.962Z,8.80
2023-03-03T13:15:32.261Z,9.01
2023-03-03T13:16:40.325Z,9.01
2023-03-03T13:17:26.948Z,9.01
2023-03-03T13:18:25.913Z,8.92
2023-03-03T13:19:25.885Z,9.04
2023-03-03T13:20:25.861Z,8.59
2023-03-03T13:21:25.860Z,8.31
2023-03-03T13:22:25.866Z,8.44
2023-03-03T13:23:25.832Z,8.60
2023-03-03T13:24:25.820Z,8.81
2023-03-03T13:25:25.842Z,8.69
2023-03-03T13:26:25.819Z,8.56
2023-03-03T13:27:25.764Z,8.38
2023-03-03T13:28:25.769Z,8.28
2023-03-03T13:29:25.739Z,7.76
2023-03-03T13:30:25.740Z,7.77
2023-03-03T13:31:25.720Z,7.60
2023-03-03T13:32:25.780Z,7.62
2023-03-03T13:33:25.695Z,7.85
2023-03-03T13:34:25.667Z,7.33
2023-03-03T13:35:25.665Z,8.13
2023-03-03T13:36:25.641Z,8.85
2023-03-03T13:37:25.618Z,8.87
2023-03-03T13:38:25.623Z,8.98
2023-03-03T13:39:25.596Z,9.23
2023-03-03T13:40:25.608Z,9.84
2023-03-03T13:41:25.556Z,10.85
2023-03-03T13:42:25.568Z,11.32
2023-03-03T13:43:25.557Z,11.37
2023-03-03T13:44:25.521Z,11.39
2023-03-03T13:45:25.525Z,11.53
2023-03-03T13:46:25.468Z,11.82
2023-03-03T13:47:25.449Z,12.18
2023-03-03T13:48:25.458Z,12.40
2023-03-03T13:49:25.421Z,12.87
2023-03-03T13:50:25.419Z,12.82
2023-03-03T13:51:25.393Z,13.11
2023-03-03T13:52:25.368Z,13.67
2023-03-03T13:53:25.371Z,13.83
2023-03-03T13:54:25.328Z,13.71
2023-03-03T13:55:25.325Z,14.47
2023-03-03T13:56:25.294Z,14.79
2023-03-03T13:57:25.263Z,14.56
2023-03-03T13:58:25.252Z,14.90
2023-03-03T13:59:25.241Z,14.82
2023-03-03T14:00:25.246Z,14.85
2023-03-03T14:01:25.319Z,15.12
2023-03-03T14:02:25.199Z,15.42
2023-03-03T14:03:25.178Z,15.67
2023-03-03T14:04:25.239Z,15.69
2023-03-03T14:05:25.144Z,15.77
2023-03-03T14:06:25.124Z,15.93
2023-03-03T14:07:25.184Z,16.50
2023-03-03T14:08:25.090Z,16.86
2023-03-03T14:09:25.098Z,16.74
2023-03-03T14:10:25.072Z,16.78
2023-03-03T14:11:25.060Z,16.88
2023-03-03T14:12:25.042Z,17.08
2023-03-03T14:13:25.020Z,17.18
2023-03-03T14:14:25.043Z,17.85
2023-03-03T14:15:25.037Z,17.65
2023-03-03T14:16:25.001Z,18.02
2023-03-03T14:17:24.977Z,18.13
2023-03-03T14:18:52.644Z,18.20
2023-03-03T14:19:24.961Z,18.30
2023-03-03T14:34:02.673Z,0.50
2023-03-03T15:10:53.021Z,0.51
2023-03-03T15:14:52.919Z,0.51
2023-03-03T15:23:52.725Z,0.51
2023-03-03T15:24:52.661Z,0.51
2023-03-03T15:25:54.640Z,0.51
2023-03-03T15:26:52.607Z,0.51
2023-03-03T15:27:52.582Z,0.51
2023-03-03T15:28:52.558Z,0.51
2023-03-03T15:29:52.537Z,0.51
2023-03-03T15:30:52.528Z,0.51
2023-03-03T15:31:52.478Z,0.52
2023-03-03T15:32:52.534Z,0.51
2023-03-03T15:34:52.377Z,0.52
2023-03-03T15:43:23.212Z,0.50
2023-03-03T16:03:22.567Z,0.50
2023-03-03T16:10:08.304Z,0.50
2023-03-03T16:10:44.934Z,0.50
2023-03-03T16:46:20.113Z,0.50
2023-03-03T16:47:20.088Z,0.50
2023-03-03T16:48:20.078Z,0.50
2023-03-03T16:49:34.781Z,0.50
2023-03-03T16:51:20.013Z,0.50
2023-03-03T16:55:10.640Z,0.50
2023-03-03T16:56:49.568Z,0.50
2023-03-03T16:57:48.137Z,0.50
2023-03-03T16:58:24.725Z,0.50
2023-03-03T17:05:42.025Z,0.50
2023-03-03T17:05:42.655Z,0.50
2023-03-03T17:06:42.588Z,0.50
2023-03-03T17:08:03.590Z,0.50
2023-03-03T17:17:22.166Z,0.50
2023-03-03T17:17:22.778Z,0.50
2023-03-03T17:18:22.718Z,0.50
2023-03-03T17:38:47.056Z,0.50
2023-03-03T17:42:52.246Z,0.50
2023-03-03T17:43:52.177Z,0.50
2023-03-03T17:44:39.053Z,0.50
2023-03-03T17:47:45.546Z,0.50
2023-03-03T17:50:19.083Z,0.50
2023-03-03T17:51:19.063Z,0.50
2023-03-03T17:59:16.981Z,0.50
2023-03-03T17:59:53.886Z,0.50
2023-03-03T18:06:05.397Z,0.50
2023-03-03T18:14:18.844Z,0.50
2023-03-03T18:15:12.788Z,0.50
2023-03-03T18:24:13.081Z,0.50
2023-03-03T18:38:44.181Z,0.50
2023-03-03T18:49:54.897Z,0.50
2023-03-03T18:50:54.855Z,0.50
2023-03-03T19:12:58.755Z,0.50
2023-03-03T20:32:35.736Z,0.50
2023-03-03T20:32:45.974Z,0.50
2023-03-03T20:33:45.958Z,0.50
2023-03-03T20:34:47.256Z,0.50
2023-03-03T20:36:48.752Z,0.50
2023-03-03T20:37:45.801Z,0.50
2023-03-03T20:38:45.770Z,0.50
2023-03-03T21:10:49.736Z,0.50
2023-03-03T21:13:23.232Z,0.50
2023-03-03T21:56:25.505Z,0.50
2023-03-03T21:58:42.510Z,0.50
2023-03-03T22:02:59.006Z,0.50
2023-03-03T22:03:50.255Z,0.50
2023-03-03T22:08:52.873Z,0.50
2023-03-03T23:03:56.129Z,0.50
2023-03-03T23:27:45.354Z,0.50
